Weather

BOSCOMBE DOWN (EGDM)

METAR

EGDM 240850Z 17002KT 9999 FEW025 BKN035 M00/M01 Q1011 BLU NOSIG

TAF

TAF EGDM 130455Z 1306/1324 17015KT 9999 -RA BKN015 TEMPO 1306/1312 17018G28KT 6000 -RADZ BKN010 PROB30 TEMPO 1306/1315 3000 RADZ BKN006 BECMG 1312/1315 BKN008

BRISTOL AIRPORT (EGGD)

METAR

EGGD 240850Z AUTO 24005KT 9999 SCT018 BKN023 04/04 Q1010

TAF

TAF EGGD 240503Z 2406/2506 22006KT 9999 SCT030 TEMPO 2406/2413 7000 -RADZ BKN007 TEMPO 2413/2421 7000 BECMG 2421/2424 0200 FG VV/// TEMPO 2421/2506 1200 DZ OVC002

BRIZE NORTON (EGVN)

METAR

EGVN 240850Z 26003KT 9999 SCT032 BKN048 01/00 Q1010 BLU NOSIG

TAF

TAF EGVN 240718Z 2409/2509 VRB05KT 9999 SCT035 TEMPO 2409/2413 BKN015 BECMG 2422/2501 BKN018 BECMG 2501/2503 5000 BR BKN010 PROB30 2503/2509 1500 DZ BKN002

OXFORD (EGTK)

METAR

EGTK 240850Z 24005KT 9999 BKN030 00/M00 Q1010

Pressure charts

Click to see pressure charts
(redidrection to MetOffice website)